Azov, Russia
Current Conditions -  °F | °C
As of 7:00 PM on Sunday 23 Nov 2014 (Local Time) from URRR Reporting Station
Clear Clear  
Wind Chill: 19°   Ceiling: Unl
Heat Index: 27°   Visibility: 5mi
Dew Point: 18°   Wind: 7mph
Humidity: 69%   Direction: 30°NNE
Pressure: 30.36"   Gusts: NA
Location:  47.11°N, 39.41°E
Report Text: URRR 231600Z 03003MPS 350V070 P8000 NSC M03/M08 Q1028 04CLRD70NOSIG
Loading
Personal Weather Stations






























Interactive Weather Map New forecast layout! Learn more

10-Day Weather Forecast

Advertisements
Track Severe Weather on mobile